Time;durP1;ratioP1;P1;durP2;ratioP2;P2;SDS_P1;SDS_P2;PMS_P1;PMS_P2;Temp;Humidity;BMP_temperature;BMP_pressure;BME280_temperature;BME280_humidity;BME280_pressure;Samples;Min_cycle;Max_cycle;Signal;HPM_P1;HPM_P2
2022/11/10 00:01:48;;;;;;;;;;;13.30;99.90;;;;;;5092424;28;20293;-77
2022/11/10 00:04:13;;;;;;;;;;;13.30;99.90;;;;;;5093065;28;19920;-77
2022/11/10 00:06:39;;;;;;;;;;;13.40;99.90;;;;;;5092921;28;19909;-77
2022/11/10 00:09:05;;;;;;;;;;;13.40;99.90;;;;;;5092109;28;20596;-77
2022/11/10 00:11:31;;;;;;;;;;;13.40;99.90;;;;;;5093017;28;19940;-77
2022/11/10 00:16:59;;;;;;;;;;;13.40;99.90;;;;;;5092803;28;19915;-77
2022/11/10 00:19:25;;;;;;;;;;;13.40;99.90;;;;;;5092940;28;19914;-76
2022/11/10 00:21:51;;;;;;;;;;;13.40;99.90;;;;;;5092599;28;20007;-76
2022/11/10 00:24:17;;;;;;;;;;;13.30;99.90;;;;;;5092929;28;20007;-76
2022/11/10 00:26:43;;;;;;;;;;;13.30;99.90;;;;;;5093105;28;19970;-76
2022/11/10 00:29:09;;;;;;;;;;;13.30;99.90;;;;;;5092624;28;19961;-76
2022/11/10 00:31:38;;;;;;;;;;;13.30;99.90;;;;;;5092620;28;19912;-76
2022/11/10 00:34:04;;;;;;;;;;;13.30;99.90;;;;;;5092384;28;20184;-76
2022/11/10 00:36:30;;;;;;;;;;;13.40;99.90;;;;;;5092899;28;19954;-76
2022/11/10 00:38:56;;;;;;;;;;;13.40;99.90;;;;;;5090960;28;19948;-75
2022/11/10 00:41:21;;;;;;;;;;;13.30;99.90;;;;;;5093088;28;19915;-78
2022/11/10 00:43:47;;;;;;;;;;;13.30;99.90;;;;;;5092296;28;19916;-77
2022/11/10 00:46:13;;;;;;;;;;;13.30;99.90;;;;;;5092428;28;20029;-77
2022/11/10 00:48:39;;;;;;;;;;;13.40;99.90;;;;;;5092932;28;19979;-76
2022/11/10 00:51:04;;;;;;;;;;;13.40;99.90;;;;;;5091898;28;20612;-77
2022/11/10 00:53:30;;;;;;;;;;;13.40;99.90;;;;;;5092780;28;19912;-77
2022/11/10 00:55:56;;;;;;;;;;;13.40;99.90;;;;;;5090968;28;19908;-77
2022/11/10 00:58:21;;;;;;;;;;;13.40;99.90;;;;;;5092656;28;20372;-77
2022/11/10 01:00:47;;;;;;;;;;;13.50;99.90;;;;;;5090419;28;19912;-78
2022/11/10 01:03:14;;;;;;;;;;;13.50;99.90;;;;;;5092626;28;19928;-77
2022/11/10 01:05:40;;;;;;;;;;;13.60;99.90;;;;;;5092553;28;20282;-76
2022/11/10 01:08:05;;;;;;;;;;;13.60;99.90;;;;;;5091704;28;19904;-76
2022/11/10 01:10:31;;;;;;;;;;;13.60;99.90;;;;;;5092716;28;19997;-76
2022/11/10 01:12:57;;;;;;;;;;;13.60;99.90;;;;;;5091827;28;19915;-76
2022/11/10 01:15:22;;;;;;;;;;;13.60;99.90;;;;;;5092444;28;19908;-76
2022/11/10 01:17:48;;;;;;;;;;;13.70;99.90;;;;;;5091650;28;19946;-76
2022/11/10 01:20:14;;;;;;;;;;;13.70;99.90;;;;;;5094405;28;19938;-76
2022/11/10 01:22:39;;;;;;;;;;;13.70;99.90;;;;;;5096191;28;20273;-76
2022/11/10 01:25:05;;;;;;;;;;;13.60;99.90;;;;;;5095646;28;20503;-76
2022/11/10 01:27:31;;;;;;;;;;;13.60;99.90;;;;;;5096061;28;19926;-75
2022/11/10 01:29:56;;;;;;;;;;;13.60;99.90;;;;;;5095462;28;19923;-76
2022/11/10 01:32:22;;;;;;;;;;;13.70;99.90;;;;;;5095628;28;19916;-77
2022/11/10 01:34:47;;;;;;;;;;;13.60;99.90;;;;;;5095485;28;19908;-76
2022/11/10 01:37:13;;;;;;;;;;;13.60;99.90;;;;;;5096615;28;20365;-76
2022/11/10 01:39:39;;;;;;;;;;;13.60;99.90;;;;;;5095483;28;19931;-75
2022/11/10 01:42:04;;;;;;;;;;;13.50;99.90;;;;;;5095394;28;19959;-76
2022/11/10 01:44:30;;;;;;;;;;;13.40;99.90;;;;;;5096072;28;19912;-76
2022/11/10 01:46:55;;;;;;;;;;;13.40;99.90;;;;;;5095147;28;19909;-76
2022/11/10 01:49:23;;;;;;;;;;;13.40;99.90;;;;;;5096084;28;19943;-77
2022/11/10 01:51:50;;;;;;;;;;;13.40;99.90;;;;;;5095420;28;19961;-78
2022/11/10 01:54:26;;;;;;;;;;;13.40;99.90;;;;;;5095728;28;19909;-77
2022/11/10 01:56:54;;;;;;;;;;;13.40;99.90;;;;;;5095287;28;20369;-77
2022/11/10 01:59:25;;;;;;;;;;;13.40;99.90;;;;;;5096171;28;19908;-77
2022/11/10 02:01:52;;;;;;;;;;;13.40;99.90;;;;;;5094672;28;20006;-74
2022/11/10 02:04:18;;;;;;;;;;;13.30;99.90;;;;;;5096479;28;19923;-74
2022/11/10 02:06:44;;;;;;;;;;;13.40;99.90;;;;;;5096053;28;20269;-75
2022/11/10 02:09:11;;;;;;;;;;;13.30;99.90;;;;;;5095340;28;19916;-75
2022/11/10 02:11:37;;;;;;;;;;;13.30;99.90;;;;;;5095661;28;19998;-74
2022/11/10 02:14:03;;;;;;;;;;;13.30;99.90;;;;;;5095221;28;19952;-75
2022/11/10 02:16:29;;;;;;;;;;;13.40;99.90;;;;;;5096123;28;19955;-76
2022/11/10 02:18:54;;;;;;;;;;;13.40;99.90;;;;;;5095542;28;19912;-75
2022/11/10 02:21:20;;;;;;;;;;;13.40;99.90;;;;;;5095705;28;19908;-75
2022/11/10 02:23:47;;;;;;;;;;;13.40;99.90;;;;;;5095846;28;20023;-75
2022/11/10 02:26:13;;;;;;;;;;;13.40;99.90;;;;;;5095549;28;19962;-76
2022/11/10 02:28:39;;;;;;;;;;;13.40;99.90;;;;;;5095900;28;20006;-75
2022/11/10 02:31:05;;;;;;;;;;;13.50;99.90;;;;;;5094644;28;20010;-76
2022/11/10 02:33:30;;;;;;;;;;;13.50;99.90;;;;;;5095593;28;19950;-76
2022/11/10 02:35:56;;;;;;;;;;;13.50;99.90;;;;;;5095058;28;20306;-76
2022/11/10 02:38:22;;;;;;;;;;;13.50;99.90;;;;;;5096124;28;19912;-76
2022/11/10 02:40:48;;;;;;;;;;;13.50;99.90;;;;;;5095659;28;19961;-74
2022/11/10 02:43:14;;;;;;;;;;;13.50;99.90;;;;;;5094898;28;19916;-75
2022/11/10 02:45:45;;;;;;;;;;;13.50;99.90;;;;;;5095555;28;20416;-76
2022/11/10 02:48:12;;;;;;;;;;;13.60;99.90;;;;;;5094981;28;19995;-75
2022/11/10 02:50:38;;;;;;;;;;;13.60;99.90;;;;;;5095844;28;19908;-75
2022/11/10 02:53:04;;;;;;;;;;;13.60;99.90;;;;;;5094590;28;19915;-75
2022/11/10 02:55:29;;;;;;;;;;;13.60;99.90;;;;;;5095441;28;19948;-74
2022/11/10 02:57:55;;;;;;;;;;;13.60;99.90;;;;;;5093467;28;19946;-75
2022/11/10 03:00:20;;;;;;;;;;;13.60;99.90;;;;;;5094012;28;19991;-75
2022/11/10 03:02:46;;;;;;;;;;;13.60;99.90;;;;;;5094682;28;19931;-76
2022/11/10 03:05:11;;;;;;;;;;;13.60;99.90;;;;;;5094690;28;19915;-76
2022/11/10 03:07:37;;;;;;;;;;;13.60;99.90;;;;;;5095514;28;19908;-74
2022/11/10 03:10:03;;;;;;;;;;;13.70;99.90;;;;;;5094556;28;20281;-75
2022/11/10 03:12:29;;;;;;;;;;;13.70;99.90;;;;;;5095019;28;19950;-74
2022/11/10 03:14:54;;;;;;;;;;;13.70;99.90;;;;;;5094548;28;19947;-75
2022/11/10 03:17:20;;;;;;;;;;;13.60;99.90;;;;;;5094887;28;19908;-74
2022/11/10 03:19:45;;;;;;;;;;;13.70;99.90;;;;;;5094832;28;19915;-74
2022/11/10 03:22:11;;;;;;;;;;;13.70;99.90;;;;;;5092976;28;20029;-75
2022/11/10 03:24:36;;;;;;;;;;;13.70;99.90;;;;;;5094890;28;19930;-75
2022/11/10 03:27:02;;;;;;;;;;;13.70;99.90;;;;;;5094177;28;20350;-76
2022/11/10 03:29:27;;;;;;;;;;;13.70;99.90;;;;;;5094444;28;20003;-74
2022/11/10 03:31:54;;;;;;;;;;;13.80;99.90;;;;;;5094556;28;19908;-78
2022/11/10 03:34:19;;;;;;;;;;;13.70;99.90;;;;;;5093946;28;19935;-74
2022/11/10 03:36:45;;;;;;;;;;;13.70;99.90;;;;;;5094636;28;19915;-74
2022/11/10 03:39:10;;;;;;;;;;;13.70;99.90;;;;;;5093936;28;19915;-75
2022/11/10 03:41:36;;;;;;;;;;;13.80;99.90;;;;;;5094150;28;19966;-74
2022/11/10 03:44:01;;;;;;;;;;;13.80;99.90;;;;;;5093241;28;19920;-74
2022/11/10 03:46:27;;;;;;;;;;;13.80;99.90;;;;;;5094028;28;20046;-74
2022/11/10 03:48:53;;;;;;;;;;;13.80;99.90;;;;;;5094102;28;19999;-74
2022/11/10 03:51:18;;;;;;;;;;;13.80;99.90;;;;;;5093720;28;20353;-76
2022/11/10 03:53:44;;;;;;;;;;;13.80;99.90;;;;;;5094163;28;19912;-75
2022/11/10 03:56:10;;;;;;;;;;;13.80;99.90;;;;;;5093529;28;20306;-75
2022/11/10 03:58:35;;;;;;;;;;;13.70;99.90;;;;;;5094332;28;19908;-75
2022/11/10 04:01:01;;;;;;;;;;;13.60;99.90;;;;;;5093636;28;19919;-76
2022/11/10 04:03:26;;;;;;;;;;;13.50;99.90;;;;;;5092264;28;19920;-76
2022/11/10 04:16:49;;;;;;;;;;;13.30;99.90;;;;;;5093933;28;19916;-74
2022/11/10 04:19:15;;;;;;;;;;;13.30;99.90;;;;;;5093701;28;20619;-73
2022/11/10 04:21:40;;;;;;;;;;;13.30;99.90;;;;;;5097579;28;19908;-74
2022/11/10 04:24:07;;;;;;;;;;;13.30;99.90;;;;;;5094685;28;19920;-75
2022/11/10 04:26:36;;;;;;;;;;;13.30;99.90;;;;;;5093346;28;19908;-74
2022/11/10 04:29:03;;;;;;;;;;;13.30;99.90;;;;;;5093047;28;19909;-75
2022/11/10 04:31:30;;;;;;;;;;;13.40;99.90;;;;;;5092310;28;19974;-74
2022/11/10 04:33:56;;;;;;;;;;;13.40;99.90;;;;;;5092997;28;20315;-74
2022/11/10 04:36:23;;;;;;;;;;;13.30;99.90;;;;;;5092771;28;19912;-74
2022/11/10 04:38:48;;;;;;;;;;;13.40;99.90;;;;;;5093736;28;19939;-74
2022/11/10 04:41:15;;;;;;;;;;;13.40;99.90;;;;;;5092426;28;19959;-74
2022/11/10 04:43:40;;;;;;;;;;;13.40;99.90;;;;;;5093046;28;20322;-73
2022/11/10 04:46:07;;;;;;;;;;;13.40;99.90;;;;;;5092764;28;19908;-75
2022/11/10 04:48:33;;;;;;;;;;;13.50;99.90;;;;;;5093296;28;19962;-75
2022/11/10 04:51:06;;;;;;;;;;;13.50;99.90;;;;;;5092840;28;19935;-76
2022/11/10 04:53:32;;;;;;;;;;;13.60;99.90;;;;;;5092976;28;19908;-75
2022/11/10 04:55:57;;;;;;;;;;;13.60;99.90;;;;;;5093294;28;19909;-75
2022/11/10 04:58:23;;;;;;;;;;;13.70;99.90;;;;;;5091308;28;19909;-75
2022/11/10 05:00:48;;;;;;;;;;;13.70;99.90;;;;;;5093052;28;19908;-75
2022/11/10 05:03:14;;;;;;;;;;;13.80;99.90;;;;;;5092047;28;19928;-75
2022/11/10 05:05:42;;;;;;;;;;;13.70;99.90;;;;;;5091113;28;20215;-75
2022/11/10 05:08:07;;;;;;;;;;;13.80;99.90;;;;;;5092265;28;20007;-76
2022/11/10 05:10:34;;;;;;;;;;;14.00;99.90;;;;;;5093491;28;19908;-76
2022/11/10 05:13:00;;;;;;;;;;;13.90;99.90;;;;;;5101565;28;19908;-76
2022/11/10 05:15:25;;;;;;;;;;;14.00;99.90;;;;;;5097686;28;20337;-75
2022/11/10 05:17:52;;;;;;;;;;;14.00;99.90;;;;;;5092893;28;19957;-75
2022/11/10 05:20:18;;;;;;;;;;;14.00;99.90;;;;;;5092125;28;19999;-75
2022/11/10 05:22:45;;;;;;;;;;;14.00;99.90;;;;;;5092860;28;19912;-75
2022/11/10 05:25:11;;;;;;;;;;;14.10;99.90;;;;;;5092592;28;19919;-75
2022/11/10 05:27:36;;;;;;;;;;;14.10;99.90;;;;;;5092610;28;19908;-75
2022/11/10 05:30:02;;;;;;;;;;;14.10;99.90;;;;;;5092583;28;20372;-77
2022/11/10 05:32:28;;;;;;;;;;;14.10;99.90;;;;;;5091337;28;19935;-75
2022/11/10 05:34:53;;;;;;;;;;;14.00;99.90;;;;;;5092355;28;19915;-76
2022/11/10 05:37:19;;;;;;;;;;;14.10;99.90;;;;;;5091791;28;19908;-76
2022/11/10 05:39:44;;;;;;;;;;;14.00;99.90;;;;;;5092521;28;19920;-76
2022/11/10 05:42:10;;;;;;;;;;;14.00;99.90;;;;;;5090926;28;19915;-76
2022/11/10 05:44:35;;;;;;;;;;;14.00;99.90;;;;;;5092908;28;20371;-76
2022/11/10 05:47:01;;;;;;;;;;;14.00;99.90;;;;;;5092765;28;19950;-75
2022/11/10 05:49:26;;;;;;;;;;;14.00;99.90;;;;;;5090889;28;19908;-75
2022/11/10 05:51:52;;;;;;;;;;;13.90;99.90;;;;;;5092475;28;19908;-75
2022/11/10 05:54:17;;;;;;;;;;;14.00;99.90;;;;;;5091773;28;19916;-75
2022/11/10 05:56:43;;;;;;;;;;;13.90;99.90;;;;;;5092090;28;19919;-75
2022/11/10 05:59:09;;;;;;;;;;;13.90;99.90;;;;;;5091732;28;19909;-75
2022/11/10 06:01:34;;;;;;;;;;;13.90;99.90;;;;;;5092661;28;20080;-74
2022/11/10 06:04:00;;;;;;;;;;;13.90;99.90;;;;;;5095165;28;19920;-74
2022/11/10 06:06:25;;;;;;;;;;;14.00;99.90;;;;;;5092534;28;19995;-75
2022/11/10 06:08:51;;;;;;;;;;;14.00;99.90;;;;;;5096295;28;19915;-76
2022/11/10 06:11:16;;;;;;;;;;;14.10;99.90;;;;;;5095341;28;19922;-75
2022/11/10 06:13:42;;;;;;;;;;;14.10;99.90;;;;;;5096329;28;20308;-76
2022/11/10 06:16:07;;;;;;;;;;;14.10;99.90;;;;;;5095544;28;19908;-76
2022/11/10 06:18:33;;;;;;;;;;;14.00;99.90;;;;;;5096249;28;19909;-76
2022/11/10 06:20:58;;;;;;;;;;;14.10;99.90;;;;;;5095847;28;19915;-73
2022/11/10 06:23:24;;;;;;;;;;;14.00;99.90;;;;;;5095669;28;19916;-75
2022/11/10 06:25:49;;;;;;;;;;;14.00;99.90;;;;;;5095732;28;19957;-75
2022/11/10 06:28:16;;;;;;;;;;;14.00;99.90;;;;;;5094586;28;19908;-74
2022/11/10 06:30:41;;;;;;;;;;;14.00;99.90;;;;;;5095890;28;20261;-74
2022/11/10 06:33:07;;;;;;;;;;;14.10;99.90;;;;;;5095369;28;19908;-77
2022/11/10 06:35:33;;;;;;;;;;;14.00;99.90;;;;;;5095923;28;19915;-75
2022/11/10 06:38:00;;;;;;;;;;;14.00;99.90;;;;;;5095234;28;19916;-74
2022/11/10 06:40:26;;;;;;;;;;;14.00;99.90;;;;;;5094594;28;20073;-75
2022/11/10 06:42:52;;;;;;;;;;;13.90;99.90;;;;;;5095235;28;20375;-75
2022/11/10 06:45:17;;;;;;;;;;;14.00;99.90;;;;;;5095018;28;19912;-75
2022/11/10 06:47:43;;;;;;;;;;;14.00;99.90;;;;;;5095958;28;20006;-75
2022/11/10 06:50:08;;;;;;;;;;;13.90;99.90;;;;;;5094630;28;19908;-76
2022/11/10 06:52:34;;;;;;;;;;;13.90;99.90;;;;;;5095111;28;19919;-75
2022/11/10 06:55:00;;;;;;;;;;;13.90;99.90;;;;;;5095455;28;19908;-75
2022/11/10 06:57:26;;;;;;;;;;;13.90;99.90;;;;;;5094753;28;19917;-76
2022/11/10 06:59:51;;;;;;;;;;;13.90;99.90;;;;;;5095282;28;20315;-75
2022/11/10 07:02:17;;;;;;;;;;;13.90;99.90;;;;;;5093076;28;19920;-74
2022/11/10 07:04:42;;;;;;;;;;;13.90;99.90;;;;;;5095155;28;19916;-74
2022/11/10 07:07:09;;;;;;;;;;;14.00;99.90;;;;;;5094609;28;19908;-76
2022/11/10 07:09:34;;;;;;;;;;;14.00;99.90;;;;;;5095114;28;19939;-75
2022/11/10 07:12:00;;;;;;;;;;;14.10;99.90;;;;;;5094960;28;19911;-75
2022/11/10 07:14:25;;;;;;;;;;;14.20;99.90;;;;;;5094481;28;19948;-75
2022/11/10 07:16:51;;;;;;;;;;;14.20;99.90;;;;;;5094516;28;19909;-75
2022/11/10 07:19:16;;;;;;;;;;;14.20;99.90;;;;;;5094222;28;19931;-76
2022/11/10 07:21:42;;;;;;;;;;;14.20;99.90;;;;;;5094685;28;19908;-75
2022/11/10 07:24:08;;;;;;;;;;;14.20;99.90;;;;;;5094409;28;20037;-75
2022/11/10 07:26:33;;;;;;;;;;;14.20;99.90;;;;;;5094345;28;19920;-75
2022/11/10 07:28:59;;;;;;;;;;;14.20;99.90;;;;;;5094719;28;19915;-75
2022/11/10 07:31:24;;;;;;;;;;;14.20;99.90;;;;;;5093850;28;19912;-76
2022/11/10 07:33:50;;;;;;;;;;;14.10;99.90;;;;;;5094083;28;20300;-76
2022/11/10 07:36:15;;;;;;;;;;;14.20;99.90;;;;;;5094013;28;19918;-76
2022/11/10 07:38:41;;;;;;;;;;;14.20;99.90;;;;;;5094407;28;19909;-76
2022/11/10 07:41:06;;;;;;;;;;;14.10;99.90;;;;;;5094406;28;19908;-75
2022/11/10 07:43:32;;;;;;;;;;;14.20;99.90;;;;;;5093528;28;20014;-76
2022/11/10 07:45:59;;;;;;;;;;;14.20;99.90;;;;;;5094242;28;19916;-75
2022/11/10 07:48:25;;;;;;;;;;;14.20;99.90;;;;;;5093879;28;19927;-75
2022/11/10 07:50:50;;;;;;;;;;;14.20;99.90;;;;;;5094650;28;19909;-75
2022/11/10 07:53:18;;;;;;;;;;;14.20;99.90;;;;;;5093871;28;19908;-75
2022/11/10 07:55:44;;;;;;;;;;;14.20;99.90;;;;;;5094256;28;19923;-75
2022/11/10 07:58:14;;;;;;;;;;;14.20;99.90;;;;;;5092553;28;20282;-74
2022/11/10 08:00:40;;;;;;;;;;;14.20;99.90;;;;;;5092376;28;19908;-74
2022/11/10 08:03:06;;;;;;;;;;;14.20;99.90;;;;;;5093967;28;20011;-73
2022/11/10 08:05:32;;;;;;;;;;;14.30;99.90;;;;;;5093372;28;19912;-74
2022/11/10 08:07:59;;;;;;;;;;;14.20;99.90;;;;;;5093257;28;19977;-74
2022/11/10 08:10:25;;;;;;;;;;;14.30;99.90;;;;;;5092954;28;19912;-75
2022/11/10 08:12:58;;;;;;;;;;;14.20;99.90;;;;;;5093001;28;19908;-75
2022/11/10 08:15:24;;;;;;;;;;;14.30;99.90;;;;;;5091833;28;19912;-76
2022/11/10 08:17:50;;;;;;;;;;;14.30;99.90;;;;;;5093957;28;19908;-76
2022/11/10 08:20:16;;;;;;;;;;;14.30;99.90;;;;;;5092768;28;20214;-75
2022/11/10 08:22:41;;;;;;;;;;;14.30;99.90;;;;;;5093417;28;19923;-75
2022/11/10 08:25:07;;;;;;;;;;;14.30;99.90;;;;;;5093821;28;19961;-75
2022/11/10 08:27:33;;;;;;;;;;;14.30;99.90;;;;;;5093035;28;19912;-76
2022/11/10 08:29:58;;;;;;;;;;;14.40;99.90;;;;;;5091888;28;19943;-75
2022/11/10 08:32:24;;;;;;;;;;;14.40;99.90;;;;;;5093125;28;19912;-74
2022/11/10 08:34:49;;;;;;;;;;;14.40;99.90;;;;;;5093758;28;19972;-74
2022/11/10 08:37:15;;;;;;;;;;;14.40;99.90;;;;;;5091737;28;19908;-75
2022/11/10 08:39:40;;;;;;;;;;;14.40;99.90;;;;;;5093492;28;19931;-74
2022/11/10 08:42:06;;;;;;;;;;;14.40;99.90;;;;;;5093456;28;19915;-74
2022/11/10 08:44:32;;;;;;;;;;;14.50;99.90;;;;;;5092428;28;19923;-75
2022/11/10 08:46:57;;;;;;;;;;;14.50;99.90;;;;;;5093149;28;19908;-75
2022/11/10 08:49:23;;;;;;;;;;;14.50;99.90;;;;;;5092979;28;19915;-74
2022/11/10 08:51:48;;;;;;;;;;;14.60;99.90;;;;;;5091895;28;20392;-75
2022/11/10 08:54:14;;;;;;;;;;;14.60;99.90;;;;;;5093087;28;19919;-74
2022/11/10 08:56:39;;;;;;;;;;;14.60;99.90;;;;;;5092652;28;19908;-73
2022/11/10 08:59:05;;;;;;;;;;;14.60;99.90;;;;;;5092393;28;19961;-74
2022/11/10 09:01:30;;;;;;;;;;;14.60;99.90;;;;;;5092121;28;19908;-74
2022/11/10 09:03:56;;;;;;;;;;;14.60;99.90;;;;;;5092346;28;19916;-74
2022/11/10 09:06:22;;;;;;;;;;;14.70;99.90;;;;;;5092644;28;19908;-75
2022/11/10 09:08:48;;;;;;;;;;;14.80;99.90;;;;;;5092583;28;19955;-75
2022/11/10 09:11:13;;;;;;;;;;;14.80;99.90;;;;;;5092482;28;20437;-74
2022/11/10 09:13:39;;;;;;;;;;;14.80;99.90;;;;;;5091404;28;19908;-75
2022/11/10 09:16:05;;;;;;;;;;;14.80;99.90;;;;;;5092938;28;19912;-73
2022/11/10 09:18:31;;;;;;;;;;;14.80;99.90;;;;;;5092260;28;19912;-74
2022/11/10 09:20:56;;;;;;;;;;;14.80;99.90;;;;;;5092936;28;19915;-74
2022/11/10 09:23:23;;;;;;;;;;;14.80;99.90;;;;;;5092240;28;20368;-74
2022/11/10 09:25:50;;;;;;;;;;;14.80;99.90;;;;;;5092757;28;20345;-74
2022/11/10 09:28:16;;;;;;;;;;;14.90;99.90;;;;;;5091926;28;19912;-76
2022/11/10 09:30:41;;;;;;;;;;;14.90;99.90;;;;;;5092363;28;19914;-74
2022/11/10 09:33:07;;;;;;;;;;;14.90;99.90;;;;;;5092238;28;19998;-74
2022/11/10 09:35:33;;;;;;;;;;;15.00;99.90;;;;;;5091256;28;19908;-75
2022/11/10 09:37:59;;;;;;;;;;;14.90;99.90;;;;;;5092198;28;19908;-74
2022/11/10 09:40:30;;;;;;;;;;;14.90;99.90;;;;;;5093512;28;20361;-74
2022/11/10 09:42:58;;;;;;;;;;;14.90;99.90;;;;;;5096014;28;19916;-75
2022/11/10 09:45:39;;;;;;;;;;;14.90;99.90;;;;;;5096541;28;19908;-76
2022/11/10 09:48:05;;;;;;;;;;;14.80;99.90;;;;;;5097016;28;19952;-75
2022/11/10 09:50:40;;;;;;;;;;;14.80;99.90;;;;;;5096115;28;19935;-75
2022/11/10 09:53:11;;;;;;;;;;;14.70;99.90;;;;;;5096728;28;19999;-75
2022/11/10 09:55:41;;;;;;;;;;;14.70;99.90;;;;;;5094922;28;19947;-75
2022/11/10 09:58:10;;;;;;;;;;;14.70;99.90;;;;;;5096536;28;19908;-75
2022/11/10 10:00:36;;;;;;;;;;;14.70;99.90;;;;;;5095188;28;20379;-74
2022/11/10 10:03:02;;;;;;;;;;;14.90;99.90;;;;;;5097875;28;20007;-75
2022/11/10 10:05:50;;;;;;;;;;;15.00;99.90;;;;;;5103135;28;20056;-76
2022/11/10 10:08:19;;;;;;;;;;;15.00;99.90;;;;;;5096267;28;19908;-75
2022/11/10 10:10:57;;;;;;;;;;;15.10;99.90;;;;;;5095622;28;19919;-75
2022/11/10 10:13:35;;;;;;;;;;;15.20;99.90;;;;;;5095007;28;19908;-76
2022/11/10 10:16:12;;;;;;;;;;;15.20;99.90;;;;;;5095850;28;19991;-75
2022/11/10 10:18:58;;;;;;;;;;;15.30;99.90;;;;;;5095551;28;19963;-75
2022/11/10 10:21:23;;;;;;;;;;;15.40;99.90;;;;;;5095454;28;19908;-75
2022/11/10 10:23:51;;;;;;;;;;;15.40;99.90;;;;;;5095813;28;19964;-74
2022/11/10 10:26:18;;;;;;;;;;;15.40;99.90;;;;;;5095729;28;20003;-75
2022/11/10 10:28:45;;;;;;;;;;;15.40;99.90;;;;;;5095140;28;19915;-75
2022/11/10 10:31:18;;;;;;;;;;;15.40;99.90;;;;;;5094352;28;19954;-74
2022/11/10 10:33:45;;;;;;;;;;;15.40;99.90;;;;;;5091827;28;19920;-75
2022/11/10 10:36:24;;;;;;;;;;;15.40;99.90;;;;;;5079392;28;20349;-75
2022/11/10 10:38:52;;;;;;;;;;;15.40;99.90;;;;;;5074759;28;19956;-74
2022/11/10 10:41:25;;;;;;;;;;;15.40;99.90;;;;;;5074748;28;19908;-74
2022/11/10 10:43:52;;;;;;;;;;;15.40;99.90;;;;;;5075140;28;19916;-75
2022/11/10 10:46:19;;;;;;;;;;;15.40;99.90;;;;;;5074933;28;19954;-75
2022/11/10 10:48:44;;;;;;;;;;;15.40;99.90;;;;;;5074187;28;19921;-75
2022/11/10 10:51:18;;;;;;;;;;;15.40;99.90;;;;;;5074449;28;20019;-76
2022/11/10 10:53:44;;;;;;;;;;;15.50;99.90;;;;;;5089551;28;19996;-76
2022/11/10 10:56:18;;;;;;;;;;;15.60;99.90;;;;;;5074776;28;20013;-76
2022/11/10 10:58:54;;;;;;;;;;;15.70;99.90;;;;;;5074237;28;19904;-75
2022/11/10 11:01:19;;;;;;;;;;;15.70;99.90;;;;;;5074544;28;19977;-75
2022/11/10 11:03:46;;;;;;;;;;;15.70;99.90;;;;;;5074158;28;19928;-76
2022/11/10 11:06:15;;;;;;;;;;;15.80;99.90;;;;;;5074693;28;19909;-76
2022/11/10 11:08:53;;;;;;;;;;;15.80;99.90;;;;;;5072808;28;19915;-75
2022/11/10 11:11:22;;;;;;;;;;;15.70;99.90;;;;;;5074370;28;19944;-76
2022/11/10 11:13:48;;;;;;;;;;;15.70;99.90;;;;;;5074222;28;19974;-75
2022/11/10 11:16:13;;;;;;;;;;;15.70;99.90;;;;;;5074359;28;19912;-75
2022/11/10 11:18:39;;;;;;;;;;;15.70;99.90;;;;;;5074012;28;19916;-76
2022/11/10 11:21:08;;;;;;;;;;;15.70;99.90;;;;;;5073771;28;20350;-75
2022/11/10 11:23:44;;;;;;;;;;;15.70;99.90;;;;;;5071892;28;20265;-75
2022/11/10 11:26:33;;;;;;;;;;;15.70;99.90;;;;;;5074110;28;19916;-75
2022/11/10 11:29:17;;;;;;;;;;;15.70;99.90;;;;;;5071241;28;19908;-76
2022/11/10 11:31:48;;;;;;;;;;;15.70;99.90;;;;;;5073752;28;20003;-75
2022/11/10 11:34:19;;;;;;;;;;;15.70;99.90;;;;;;5073270;28;20015;-75
2022/11/10 11:36:51;;;;;;;;;;;15.70;99.90;;;;;;5072840;28;19908;-76
2022/11/10 11:39:16;;;;;;;;;;;15.70;99.90;;;;;;5073051;28;20022;-76
2022/11/10 11:41:54;;;;;;;;;;;15.80;99.90;;;;;;5072241;28;19908;-76
2022/11/10 11:44:28;;;;;;;;;;;15.80;99.90;;;;;;5074313;28;19923;-74
2022/11/10 11:46:57;;;;;;;;;;;15.90;99.90;;;;;;5077598;28;19909;-75
2022/11/10 11:49:41;;;;;;;;;;;15.90;99.90;;;;;;5078843;28;19909;-74
2022/11/10 11:52:06;;;;;;;;;;;15.90;99.90;;;;;;5073542;28;19998;-76
2022/11/10 11:54:35;;;;;;;;;;;15.90;99.90;;;;;;5082936;28;20377;-75
2022/11/10 11:57:14;;;;;;;;;;;15.90;99.90;;;;;;5092904;28;19915;-76
2022/11/10 11:59:58;;;;;;;;;;;15.90;99.90;;;;;;5091819;28;19908;-76
2022/11/10 12:02:26;;;;;;;;;;;15.90;99.90;;;;;;5093829;28;19980;-75
2022/11/10 12:05:01;;;;;;;;;;;16.00;99.90;;;;;;5092577;28;19939;-76
2022/11/10 12:07:39;;;;;;;;;;;16.10;99.90;;;;;;5093042;28;19908;-76
2022/11/10 12:10:25;;;;;;;;;;;16.10;99.90;;;;;;5093920;28;19981;-76
2022/11/10 12:12:57;;;;;;;;;;;16.20;99.90;;;;;;5093009;28;20345;-76
2022/11/10 12:15:30;;;;;;;;;;;16.10;99.90;;;;;;5093959;28;20008;-75
2022/11/10 12:18:05;;;;;;;;;;;16.10;99.90;;;;;;5093581;28;20313;-75
2022/11/10 12:20:54;;;;;;;;;;;16.10;99.90;;;;;;5091510;28;19909;-75
2022/11/10 12:23:23;;;;;;;;;;;16.10;99.90;;;;;;5087573;28;19912;-75
2022/11/10 12:25:51;;;;;;;;;;;16.00;99.90;;;;;;5092302;28;20205;-75
2022/11/10 12:28:17;;;;;;;;;;;16.00;99.90;;;;;;5093307;28;19954;-75
2022/11/10 12:30:43;;;;;;;;;;;16.00;99.90;;;;;;5092444;28;19948;-75
2022/11/10 12:33:15;;;;;;;;;;;16.00;99.90;;;;;;5092886;28;19912;-74
2022/11/10 12:35:42;;;;;;;;;;;16.10;99.90;;;;;;5093015;28;19927;-75
2022/11/10 12:38:15;;;;;;;;;;;16.10;99.90;;;;;;5092015;28;20372;-75
2022/11/10 12:40:53;;;;;;;;;;;16.10;99.90;;;;;;5092191;28;19961;-75
2022/11/10 12:43:32;;;;;;;;;;;16.10;99.90;;;;;;5093025;28;20015;-75
2022/11/10 12:46:00;;;;;;;;;;;16.00;99.90;;;;;;5092877;28;19912;-75
2022/11/10 12:48:28;;;;;;;;;;;16.10;99.90;;;;;;5093022;28;20089;-75
2022/11/10 12:51:04;;;;;;;;;;;16.00;99.90;;;;;;5091394;28;19908;-75
2022/11/10 12:53:35;;;;;;;;;;;16.00;99.90;;;;;;5092373;28;20341;-76
2022/11/10 12:56:12;;;;;;;;;;;16.00;99.90;;;;;;5093004;28;19908;-74
2022/11/10 12:58:38;;;;;;;;;;;15.90;99.90;;;;;;5092380;28;19915;-75
2022/11/10 13:01:05;;;;;;;;;;;15.90;99.90;;;;;;5092194;28;19908;-75
2022/11/10 13:03:32;;;;;;;;;;;15.90;99.90;;;;;;5091609;28;19931;-77
2022/11/10 13:06:02;;;;;;;;;;;15.90;99.90;;;;;;5092140;28;19908;-75
2022/11/10 13:08:35;;;;;;;;;;;15.90;99.90;;;;;;5092335;28;20011;-75
2022/11/10 13:11:01;;;;;;;;;;;15.90;99.90;;;;;;5092540;28;19961;-75
2022/11/10 13:13:26;;;;;;;;;;;15.90;99.90;;;;;;5092364;28;19912;-75
2022/11/10 13:15:54;;;;;;;;;;;15.90;99.90;;;;;;5091807;28;19965;-74
2022/11/10 13:18:25;;;;;;;;;;;15.90;99.90;;;;;;5092498;28;20441;-73
2022/11/10 13:20:52;;;;;;;;;;;15.90;99.90;;;;;;5091902;28;19943;-75
2022/11/10 13:23:21;;;;;;;;;;;16.00;99.90;;;;;;5092302;28;19916;-74
2022/11/10 13:25:50;;;;;;;;;;;16.00;99.90;;;;;;5091767;28;19908;-75
2022/11/10 13:28:36;;;;;;;;;;;16.00;99.90;;;;;;5092570;28;20040;-74
2022/11/10 13:31:21;;;;;;;;;;;16.00;99.90;;;;;;5092207;28;19915;-74
2022/11/10 13:34:03;;;;;;;;;;;16.00;99.90;;;;;;5091721;28;19967;-74
2022/11/10 13:36:42;;;;;;;;;;;16.00;99.90;;;;;;5092210;28;20272;-73
2022/11/10 13:39:34;;;;;;;;;;;16.00;99.90;;;;;;5092226;28;19955;-75
2022/11/10 13:42:16;;;;;;;;;;;16.10;99.90;;;;;;5089984;28;19908;-75
2022/11/10 13:44:43;;;;;;;;;;;16.00;99.90;;;;;;5091493;28;19916;-75
2022/11/10 13:47:08;;;;;;;;;;;16.10;99.90;;;;;;5091983;28;19957;-75
2022/11/10 13:49:37;;;;;;;;;;;16.10;99.90;;;;;;5091993;28;19913;-78
2022/11/10 13:52:08;;;;;;;;;;;16.00;99.90;;;;;;5092263;28;19909;-76
2022/11/10 13:54:52;;;;;;;;;;;16.00;99.90;;;;;;5092856;28;19915;-76
2022/11/10 13:57:26;;;;;;;;;;;16.00;99.90;;;;;;5092895;28;19908;-76
2022/11/10 13:59:56;;;;;;;;;;;16.00;99.90;;;;;;5092740;28;20087;-75
2022/11/10 14:02:35;;;;;;;;;;;16.00;99.90;;;;;;5092686;28;20037;-75
2022/11/10 14:05:01;;;;;;;;;;;16.00;99.90;;;;;;5092320;28;19923;-75
2022/11/10 14:07:34;;;;;;;;;;;16.00;99.90;;;;;;5091598;28;19973;-76
2022/11/10 14:10:03;;;;;;;;;;;16.00;99.90;;;;;;5091532;28;20356;-75
2022/11/10 14:12:29;;;;;;;;;;;16.00;99.90;;;;;;5092413;28;19908;-76
2022/11/10 14:15:10;;;;;;;;;;;16.00;99.90;;;;;;5090556;28;19919;-75
2022/11/10 14:17:55;;;;;;;;;;;16.00;99.90;;;;;;5090542;28;20010;-76
2022/11/10 14:20:26;;;;;;;;;;;16.00;99.90;;;;;;5091368;28;19908;-76
2022/11/10 14:22:52;;;;;;;;;;;15.90;99.90;;;;;;5091797;28;19919;-76
2022/11/10 14:25:25;;;;;;;;;;;15.90;99.90;;;;;;5090680;28;19912;-76
2022/11/10 14:27:51;;;;;;;;;;;15.90;99.90;;;;;;5094036;28;19908;-75
2022/11/10 14:30:28;;;;;;;;;;;15.90;99.90;;;;;;5094039;28;19915;-76
2022/11/10 14:32:58;;;;;;;;;;;15.90;99.90;;;;;;5095519;28;20445;-74
2022/11/10 14:35:28;;;;;;;;;;;15.90;99.90;;;;;;5094271;28;19908;-75